Pagina principale
METAR-TAF:

METAR-TAF

Aeroporti :

Aeroporto di Najran

Najran, Arabia Saudita

latitudine: 17-37N, longitudine: 044-25E, altezza: 1212 m

Osservazione

Il bollettino è stato emesso 1 ora e 10 minuti fa, alle 22:00 UTC
Vento calmo
Temperature 29°C
Umidità 22%
Pressione 1012 hPa
Visibilità 10 km o più
nessuna nube inferiore a 1500 m e nessun cumulonembo

METAR: OENG 162200Z 00000KT CAVOK 29/05 Q1012 NOSIG

Ora: 02:10 (23:10 UTC)

Previsione

Il bollettino è stato emesso 12 ore e 10 minuti fa, alle 11:00 UTC
Previsione valida dal 16 alle 12 UTC al 17 alle 18 UTC
Vento 10 kt da nord/nord-est
Visibilità 10 km o più
Poco nuvoloso ad un'altezza di 3000 ft
Evoluzione graduale
dal 16 alle 20 UTC al 16 alle 22 UTC
Vento 10 kt da ovest/nord-ovest

TAF: OENG 161100Z 1612/1718 03010KT 9999 FEW030 BECMG 1620/1622 29010KT

Osservazioni e previsioni meteorologiche di più di 4000 aeroporti (messaggi METAR e TAF).

Le stazioni disponibili sono rappresentate dai dischi gialli e rossi sulla carta.

Puntare il mouse per vedere il nome della stazione.

Clicca sopra per visualizzare le osservazioni e previsioni meteorologiche.

Per cambiare la mappa : fare clic sui pulsanti verdi con una croce nera per ingrandire, il pulsante verde con un trattino per diminuire, o sulla freccia verde per le mappe adiacenti.


METAR-TAF: